sensor_id;sensor_type;location;lat;lon;timestamp;pressure;altitude;pressure_sealevel;temperature;humidity
33697;BME280;20031;43.416;23.232;2023-04-06T00:01:12;99855.38;;;5.05;72.55
33697;BME280;20031;43.416;23.232;2023-04-06T00:03:38;99855.50;;;5.04;73.24
33697;BME280;20031;43.416;23.232;2023-04-06T00:06:03;99848.06;;;5.10;73.24
33697;BME280;20031;43.416;23.232;2023-04-06T00:08:29;99851.06;;;5.15;72.91
33697;BME280;20031;43.416;23.232;2023-04-06T00:10:55;99849.88;;;5.19;73.00
33697;BME280;20031;43.416;23.232;2023-04-06T00:13:21;99849.72;;;5.20;73.26
33697;BME280;20031;43.416;23.232;2023-04-06T00:15:46;99844.00;;;5.17;72.59
33697;BME280;20031;43.416;23.232;2023-04-06T00:18:12;99845.91;;;5.15;72.71
33697;BME280;20031;43.416;23.232;2023-04-06T00:20:37;99842.00;;;5.20;73.07
33697;BME280;20031;43.416;23.232;2023-04-06T00:23:03;99841.06;;;5.21;73.11
33697;BME280;20031;43.416;23.232;2023-04-06T00:25:28;99841.84;;;5.22;73.28
33697;BME280;20031;43.416;23.232;2023-04-06T00:27:54;99833.97;;;5.23;73.20
33697;BME280;20031;43.416;23.232;2023-04-06T00:30:19;99835.06;;;5.21;73.69
33697;BME280;20031;43.416;23.232;2023-04-06T00:32:45;99832.47;;;5.21;73.92
33697;BME280;20031;43.416;23.232;2023-04-06T00:35:10;99830.84;;;5.20;73.90
33697;BME280;20031;43.416;23.232;2023-04-06T00:37:36;99829.88;;;5.21;73.77
33697;BME280;20031;43.416;23.232;2023-04-06T00:40:02;99826.38;;;5.22;73.60
33697;BME280;20031;43.416;23.232;2023-04-06T00:42:28;99830.03;;;5.19;73.25
33697;BME280;20031;43.416;23.232;2023-04-06T00:44:54;99820.28;;;5.23;73.60
33697;BME280;20031;43.416;23.232;2023-04-06T00:47:21;99824.72;;;5.21;73.24
33697;BME280;20031;43.416;23.232;2023-04-06T00:49:46;99823.13;;;5.20;73.86
33697;BME280;20031;43.416;23.232;2023-04-06T00:52:12;99824.19;;;5.17;74.17
33697;BME280;20031;43.416;23.232;2023-04-06T00:54:37;99827.84;;;5.15;74.31
33697;BME280;20031;43.416;23.232;2023-04-06T00:57:03;99823.13;;;5.20;74.30
33697;BME280;20031;43.416;23.232;2023-04-06T00:59:28;99827.03;;;5.24;74.56
33697;BME280;20031;43.416;23.232;2023-04-06T01:01:55;99817.94;;;5.20;74.40
33697;BME280;20031;43.416;23.232;2023-04-06T01:04:20;99823.66;;;5.23;74.41
33697;BME280;20031;43.416;23.232;2023-04-06T01:06:48;99823.41;;;5.26;74.70
33697;BME280;20031;43.416;23.232;2023-04-06T01:09:14;99820.94;;;5.25;74.43
33697;BME280;20031;43.416;23.232;2023-04-06T01:11:39;99822.59;;;5.26;74.12
33697;BME280;20031;43.416;23.232;2023-04-06T01:14:05;99822.44;;;5.27;74.30
33697;BME280;20031;43.416;23.232;2023-04-06T01:16:31;99815.66;;;5.26;74.64
33697;BME280;20031;43.416;23.232;2023-04-06T01:18:57;99821.53;;;5.28;74.18
33697;BME280;20031;43.416;23.232;2023-04-06T01:21:22;99815.25;;;5.31;74.26
33697;BME280;20031;43.416;23.232;2023-04-06T01:23:47;99820.28;;;5.32;74.53
33697;BME280;20031;43.416;23.232;2023-04-06T01:26:13;99813.38;;;5.33;74.31
33697;BME280;20031;43.416;23.232;2023-04-06T01:28:39;99809.16;;;5.32;74.28
33697;BME280;20031;43.416;23.232;2023-04-06T01:31:06;99811.19;;;5.28;74.48
33697;BME280;20031;43.416;23.232;2023-04-06T01:33:32;99810.88;;;5.22;74.31
33697;BME280;20031;43.416;23.232;2023-04-06T01:35:58;99797.31;;;5.20;74.45
33697;BME280;20031;43.416;23.232;2023-04-06T01:38:23;99804.91;;;5.21;74.30
33697;BME280;20031;43.416;23.232;2023-04-06T01:40:49;99799.88;;;5.20;74.01
33697;BME280;20031;43.416;23.232;2023-04-06T01:43:15;99796.19;;;5.22;74.18
33697;BME280;20031;43.416;23.232;2023-04-06T01:45:41;99791.03;;;5.22;74.28
33697;BME280;20031;43.416;23.232;2023-04-06T01:48:07;99789.28;;;5.23;74.65
33697;BME280;20031;43.416;23.232;2023-04-06T01:50:32;99796.06;;;5.24;74.51
33697;BME280;20031;43.416;23.232;2023-04-06T01:52:58;99803.81;;;5.24;74.37
33697;BME280;20031;43.416;23.232;2023-04-06T01:55:23;99797.72;;;5.25;74.56
33697;BME280;20031;43.416;23.232;2023-04-06T01:57:49;99795.41;;;5.22;74.02
33697;BME280;20031;43.416;23.232;2023-04-06T02:00:15;99794.31;;;5.24;74.26
33697;BME280;20031;43.416;23.232;2023-04-06T02:02:41;99791.34;;;5.29;74.43
33697;BME280;20031;43.416;23.232;2023-04-06T02:05:07;99788.50;;;5.32;74.15
33697;BME280;20031;43.416;23.232;2023-04-06T02:07:33;99778.97;;;5.32;74.27
33697;BME280;20031;43.416;23.232;2023-04-06T02:09:59;99789.16;;;5.24;73.87
33697;BME280;20031;43.416;23.232;2023-04-06T02:12:24;99779.66;;;5.25;74.10
33697;BME280;20031;43.416;23.232;2023-04-06T02:14:50;99777.72;;;5.27;73.78
33697;BME280;20031;43.416;23.232;2023-04-06T02:17:15;99779.50;;;5.26;74.23
33697;BME280;20031;43.416;23.232;2023-04-06T02:19:41;99780.59;;;5.24;73.95
33697;BME280;20031;43.416;23.232;2023-04-06T02:22:06;99778.84;;;5.24;74.38
33697;BME280;20031;43.416;23.232;2023-04-06T02:24:32;99774.47;;;5.25;74.08
33697;BME280;20031;43.416;23.232;2023-04-06T02:26:57;99773.94;;;5.31;74.64
33697;BME280;20031;43.416;23.232;2023-04-06T02:29:23;99775.59;;;5.32;74.38
33697;BME280;20031;43.416;23.232;2023-04-06T02:31:48;99772.06;;;5.33;74.31
33697;BME280;20031;43.416;23.232;2023-04-06T02:34:14;99769.88;;;5.28;74.21
33697;BME280;20031;43.416;23.232;2023-04-06T02:36:45;99772.03;;;5.23;74.57
33697;BME280;20031;43.416;23.232;2023-04-06T02:39:11;99769.59;;;5.22;74.67
33697;BME280;20031;43.416;23.232;2023-04-06T02:41:37;99776.78;;;5.28;74.88
33697;BME280;20031;43.416;23.232;2023-04-06T02:44:02;99772.97;;;5.22;74.00
33697;BME280;20031;43.416;23.232;2023-04-06T02:46:28;99778.72;;;5.26;74.89
33697;BME280;20031;43.416;23.232;2023-04-06T02:48:54;99775.56;;;5.22;74.71
33697;BME280;20031;43.416;23.232;2023-04-06T02:51:20;99773.25;;;5.19;74.68
33697;BME280;20031;43.416;23.232;2023-04-06T02:53:45;99773.81;;;5.23;74.94
33697;BME280;20031;43.416;23.232;2023-04-06T02:56:11;99774.47;;;5.25;74.48
33697;BME280;20031;43.416;23.232;2023-04-06T02:58:36;99776.41;;;5.32;74.80
33697;BME280;20031;43.416;23.232;2023-04-06T03:01:03;99773.53;;;5.35;74.63
33697;BME280;20031;43.416;23.232;2023-04-06T03:03:29;99773.69;;;5.34;74.65
33697;BME280;20031;43.416;23.232;2023-04-06T03:05:55;99778.28;;;5.21;73.85
33697;BME280;20031;43.416;23.232;2023-04-06T03:08:23;99775.94;;;5.08;74.15
33697;BME280;20031;43.416;23.232;2023-04-06T03:10:49;99776.06;;;5.07;74.32
33697;BME280;20031;43.416;23.232;2023-04-06T03:13:15;99781.78;;;5.10;74.93
33697;BME280;20031;43.416;23.232;2023-04-06T03:15:40;99780.97;;;5.10;75.10
33697;BME280;20031;43.416;23.232;2023-04-06T03:18:06;99785.88;;;5.13;75.08
33697;BME280;20031;43.416;23.232;2023-04-06T03:20:31;99779.38;;;5.18;75.00
33697;BME280;20031;43.416;23.232;2023-04-06T03:22:58;99776.53;;;5.21;74.69
33697;BME280;20031;43.416;23.232;2023-04-06T03:25:23;99776.66;;;5.20;75.02
33697;BME280;20031;43.416;23.232;2023-04-06T03:27:49;99786.72;;;5.23;74.51
33697;BME280;20031;43.416;23.232;2023-04-06T03:30:14;99771.78;;;5.26;75.27
33697;BME280;20031;43.416;23.232;2023-04-06T03:32:43;99772.72;;;5.25;74.65
33697;BME280;20031;43.416;23.232;2023-04-06T03:35:08;99773.16;;;5.30;74.84
33697;BME280;20031;43.416;23.232;2023-04-06T03:37:34;99775.59;;;5.32;74.22
33697;BME280;20031;43.416;23.232;2023-04-06T03:39:59;99774.66;;;5.33;74.61
33697;BME280;20031;43.416;23.232;2023-04-06T03:42:25;99778.84;;;5.34;73.96
33697;BME280;20031;43.416;23.232;2023-04-06T03:44:52;99771.81;;;5.36;74.08
33697;BME280;20031;43.416;23.232;2023-04-06T03:47:17;99768.00;;;5.40;73.88
33697;BME280;20031;43.416;23.232;2023-04-06T03:49:43;99768.00;;;5.40;73.86
33697;BME280;20031;43.416;23.232;2023-04-06T03:52:08;99771.81;;;5.36;73.16
33697;BME280;20031;43.416;23.232;2023-04-06T03:54:34;99772.59;;;5.36;72.50
33697;BME280;20031;43.416;23.232;2023-04-06T03:57:00;99768.69;;;5.42;71.79
33697;BME280;20031;43.416;23.232;2023-04-06T03:59:25;99772.78;;;5.44;71.56
33697;BME280;20031;43.416;23.232;2023-04-06T04:01:51;99771.25;;;5.42;70.03
33697;BME280;20031;43.416;23.232;2023-04-06T04:04:16;99767.34;;;5.47;67.77
33697;BME280;20031;43.416;23.232;2023-04-06T04:06:42;99767.75;;;5.52;65.48
33697;BME280;20031;43.416;23.232;2023-04-06T04:09:07;99766.38;;;5.57;62.95
33697;BME280;20031;43.416;23.232;2023-04-06T04:11:33;99766.97;;;5.61;61.64
33697;BME280;20031;43.416;23.232;2023-04-06T04:13:58;99762.31;;;5.64;60.78
33697;BME280;20031;43.416;23.232;2023-04-06T04:16:23;99768.59;;;5.71;60.35
33697;BME280;20031;43.416;23.232;2023-04-06T04:18:49;99765.75;;;5.74;59.76
33697;BME280;20031;43.416;23.232;2023-04-06T04:21:15;99766.44;;;5.76;59.71
33697;BME280;20031;43.416;23.232;2023-04-06T04:23:40;99773.94;;;5.79;59.48
33697;BME280;20031;43.416;23.232;2023-04-06T04:26:05;99765.91;;;5.82;58.89
33697;BME280;20031;43.416;23.232;2023-04-06T04:28:31;99766.44;;;5.86;59.21
33697;BME280;20031;43.416;23.232;2023-04-06T04:30:56;99778.28;;;5.88;58.46
33697;BME280;20031;43.416;23.232;2023-04-06T04:33:22;99775.56;;;5.90;58.35
33697;BME280;20031;43.416;23.232;2023-04-06T04:35:48;99772.16;;;5.89;57.92
33697;BME280;20031;43.416;23.232;2023-04-06T04:38:13;99773.78;;;5.90;57.64
33697;BME280;20031;43.416;23.232;2023-04-06T04:40:38;99780.59;;;5.91;57.08
33697;BME280;20031;43.416;23.232;2023-04-06T04:43:04;99784.81;;;5.92;57.51
33697;BME280;20031;43.416;23.232;2023-04-06T04:45:30;99767.41;;;5.94;57.73
33697;BME280;20031;43.416;23.232;2023-04-06T04:47:55;99779.38;;;5.95;57.20
33697;BME280;20031;43.416;23.232;2023-04-06T04:50:20;99774.06;;;5.97;57.13
33697;BME280;20031;43.416;23.232;2023-04-06T04:52:46;99776.50;;;5.98;57.14
33697;BME280;20031;43.416;23.232;2023-04-06T04:55:11;99769.28;;;6.02;56.84
33697;BME280;20031;43.416;23.232;2023-04-06T04:57:37;99770.78;;;6.04;57.11
33697;BME280;20031;43.416;23.232;2023-04-06T05:00:03;99767.94;;;6.07;57.09
33697;BME280;20031;43.416;23.232;2023-04-06T05:02:28;99770.25;;;6.10;56.47
33697;BME280;20031;43.416;23.232;2023-04-06T05:04:54;99766.44;;;6.14;56.74
33697;BME280;20031;43.416;23.232;2023-04-06T05:07:19;99775.53;;;6.18;56.96
33697;BME280;20031;43.416;23.232;2023-04-06T05:09:46;99765.88;;;6.20;56.82
33697;BME280;20031;43.416;23.232;2023-04-06T05:12:11;99759.75;;;6.21;55.78
33697;BME280;20031;43.416;23.232;2023-04-06T05:14:37;99770.34;;;6.27;56.11
33697;BME280;20031;43.416;23.232;2023-04-06T05:17:03;99769.13;;;6.31;56.67
33697;BME280;20031;43.416;23.232;2023-04-06T05:19:29;99768.69;;;6.36;56.44
33697;BME280;20031;43.416;23.232;2023-04-06T05:21:55;99773.59;;;6.39;56.07
33697;BME280;20031;43.416;23.232;2023-04-06T05:24:20;99761.72;;;6.46;56.21
33697;BME280;20031;43.416;23.232;2023-04-06T05:26:46;99767.59;;;6.48;55.41
33697;BME280;20031;43.416;23.232;2023-04-06T05:29:11;99767.69;;;6.56;55.69
33697;BME280;20031;43.416;23.232;2023-04-06T05:31:37;99765.53;;;6.60;55.18
33697;BME280;20031;43.416;23.232;2023-04-06T05:34:03;99763.47;;;6.64;55.43
33697;BME280;20031;43.416;23.232;2023-04-06T05:36:28;99768.19;;;6.68;55.41
33697;BME280;20031;43.416;23.232;2023-04-06T05:38:54;99760.59;;;6.67;55.23
33697;BME280;20031;43.416;23.232;2023-04-06T05:41:20;99763.03;;;6.68;55.13
33697;BME280;20031;43.416;23.232;2023-04-06T05:43:46;99760.03;;;6.73;55.25
33697;BME280;20031;43.416;23.232;2023-04-06T05:46:12;99765.44;;;6.79;54.95
33697;BME280;20031;43.416;23.232;2023-04-06T05:48:37;99755.94;;;6.80;54.34
33697;BME280;20031;43.416;23.232;2023-04-06T05:51:03;99744.16;;;6.85;54.60
33697;BME280;20031;43.416;23.232;2023-04-06T05:53:31;99748.22;;;6.97;54.68
33697;BME280;20031;43.416;23.232;2023-04-06T05:55:57;99742.19;;;7.06;54.29
33697;BME280;20031;43.416;23.232;2023-04-06T05:58:22;99744.03;;;7.13;53.33
33697;BME280;20031;43.416;23.232;2023-04-06T06:00:48;99745.63;;;7.24;53.64
33697;BME280;20031;43.416;23.232;2023-04-06T06:03:13;99744.75;;;7.33;52.83
33697;BME280;20031;43.416;23.232;2023-04-06T06:05:40;99744.84;;;7.41;53.59
33697;BME280;20031;43.416;23.232;2023-04-06T06:08:05;99738.09;;;7.48;52.82
33697;BME280;20031;43.416;23.232;2023-04-06T06:10:31;99753.78;;;7.46;52.22
33697;BME280;20031;43.416;23.232;2023-04-06T06:12:56;99735.75;;;7.54;52.42
33697;BME280;20031;43.416;23.232;2023-04-06T06:15:22;99737.88;;;7.59;51.62
33697;BME280;20031;43.416;23.232;2023-04-06T06:17:47;99747.66;;;7.47;50.74
33697;BME280;20031;43.416;23.232;2023-04-06T06:20:13;99745.38;;;7.44;50.09
33697;BME280;20031;43.416;23.232;2023-04-06T06:22:38;99737.00;;;7.50;50.70
33697;BME280;20031;43.416;23.232;2023-04-06T06:25:05;99736.03;;;7.51;49.66
33697;BME280;20031;43.416;23.232;2023-04-06T06:27:31;99726.03;;;7.56;49.72
33697;BME280;20031;43.416;23.232;2023-04-06T06:29:56;99739.88;;;7.64;49.43
33697;BME280;20031;43.416;23.232;2023-04-06T06:32:21;99744.72;;;7.77;49.34
33697;BME280;20031;43.416;23.232;2023-04-06T06:34:47;99744.41;;;7.80;48.92
33697;BME280;20031;43.416;23.232;2023-04-06T06:37:13;99739.38;;;7.78;48.26
33697;BME280;20031;43.416;23.232;2023-04-06T06:39:38;99738.63;;;7.86;48.31
33697;BME280;20031;43.416;23.232;2023-04-06T06:42:03;99737.94;;;8.01;48.34
33697;BME280;20031;43.416;23.232;2023-04-06T06:44:29;99735.81;;;8.14;47.63
33697;BME280;20031;43.416;23.232;2023-04-06T06:46:54;99734.25;;;8.21;47.19
33697;BME280;20031;43.416;23.232;2023-04-06T06:49:20;99739.66;;;8.27;47.64
33697;BME280;20031;43.416;23.232;2023-04-06T06:51:46;99736.22;;;8.27;46.85
33697;BME280;20031;43.416;23.232;2023-04-06T06:54:12;99748.41;;;8.26;46.50
33697;BME280;20031;43.416;23.232;2023-04-06T06:56:38;99745.16;;;8.24;46.63
33697;BME280;20031;43.416;23.232;2023-04-06T06:59:04;99751.44;;;8.22;45.64
33697;BME280;20031;43.416;23.232;2023-04-06T07:01:32;99737.28;;;8.16;45.44
33697;BME280;20031;43.416;23.232;2023-04-06T07:03:57;99734.06;;;8.14;44.37
33697;BME280;20031;43.416;23.232;2023-04-06T07:06:23;99740.34;;;8.12;44.71
33697;BME280;20031;43.416;23.232;2023-04-06T07:08:48;99737.16;;;8.01;44.55
33697;BME280;20031;43.416;23.232;2023-04-06T07:11:13;99732.84;;;8.09;44.53
33697;BME280;20031;43.416;23.232;2023-04-06T07:13:39;99746.09;;;8.06;44.38
33697;BME280;20031;43.416;23.232;2023-04-06T07:16:04;99739.78;;;8.09;44.29
33697;BME280;20031;43.416;23.232;2023-04-06T07:18:30;99724.66;;;8.39;44.42
33697;BME280;20031;43.416;23.232;2023-04-06T07:20:56;99732.81;;;8.77;43.52
33697;BME280;20031;43.416;23.232;2023-04-06T07:23:21;99722.50;;;8.93;42.96
33697;BME280;20031;43.416;23.232;2023-04-06T07:25:46;99732.25;;;8.99;42.53
33697;BME280;20031;43.416;23.232;2023-04-06T07:28:12;99730.72;;;9.14;42.88
33697;BME280;20031;43.416;23.232;2023-04-06T07:30:38;99725.06;;;9.34;43.12
33697;BME280;20031;43.416;23.232;2023-04-06T07:33:04;99722.19;;;9.53;42.05
33697;BME280;20031;43.416;23.232;2023-04-06T07:35:30;99720.91;;;9.65;42.18
33697;BME280;20031;43.416;23.232;2023-04-06T07:37:56;99704.78;;;9.45;40.77
33697;BME280;20031;43.416;23.232;2023-04-06T07:40:22;99716.34;;;9.59;41.49
33697;BME280;20031;43.416;23.232;2023-04-06T07:42:47;99709.03;;;9.54;41.12
33697;BME280;20031;43.416;23.232;2023-04-06T07:45:13;99715.69;;;9.41;40.47
33697;BME280;20031;43.416;23.232;2023-04-06T07:47:38;99704.00;;;9.45;40.97
33697;BME280;20031;43.416;23.232;2023-04-06T07:50:04;99705.75;;;9.36;40.95
33697;BME280;20031;43.416;23.232;2023-04-06T07:52:30;99712.25;;;9.40;40.37
33697;BME280;20031;43.416;23.232;2023-04-06T07:54:58;99713.91;;;9.49;40.35
33697;BME280;20031;43.416;23.232;2023-04-06T07:57:23;99714.41;;;9.68;40.47
33697;BME280;20031;43.416;23.232;2023-04-06T07:59:49;99701.25;;;9.94;40.41
33697;BME280;20031;43.416;23.232;2023-04-06T08:02:14;99701.78;;;9.97;39.39
33697;BME280;20031;43.416;23.232;2023-04-06T08:04:40;99704.56;;;9.96;39.69
33697;BME280;20031;43.416;23.232;2023-04-06T08:07:05;99696.91;;;9.94;39.57
33697;BME280;20031;43.416;23.232;2023-04-06T08:09:31;99703.06;;;10.09;39.49
33697;BME280;20031;43.416;23.232;2023-04-06T08:11:57;99703.88;;;10.18;38.91
33697;BME280;20031;43.416;23.232;2023-04-06T08:14:22;99692.97;;;10.30;38.60
33697;BME280;20031;43.416;23.232;2023-04-06T08:16:48;99682.53;;;10.38;38.63
33697;BME280;20031;43.416;23.232;2023-04-06T08:19:13;99699.78;;;10.47;38.47
33697;BME280;20031;43.416;23.232;2023-04-06T08:21:42;99687.38;;;10.49;38.43
33697;BME280;20031;43.416;23.232;2023-04-06T08:24:08;99679.88;;;10.54;38.47
33697;BME280;20031;43.416;23.232;2023-04-06T08:26:33;99705.28;;;10.60;38.33
33697;BME280;20031;43.416;23.232;2023-04-06T08:28:59;99694.88;;;10.44;37.74
33697;BME280;20031;43.416;23.232;2023-04-06T08:31:24;99705.47;;;10.34;38.12
33697;BME280;20031;43.416;23.232;2023-04-06T08:33:50;99698.97;;;10.38;38.20
33697;BME280;20031;43.416;23.232;2023-04-06T08:36:15;99685.13;;;10.38;37.54
33697;BME280;20031;43.416;23.232;2023-04-06T08:38:42;99696.16;;;10.48;37.69
33697;BME280;20031;43.416;23.232;2023-04-06T08:41:11;99688.00;;;10.67;37.74
33697;BME280;20031;43.416;23.232;2023-04-06T08:43:47;99690.53;;;10.82;37.71
33697;BME280;20031;43.416;23.232;2023-04-06T08:46:13;99679.09;;;10.91;37.30
33697;BME280;20031;43.416;23.232;2023-04-06T08:48:40;99671.28;;;10.91;37.40
33697;BME280;20031;43.416;23.232;2023-04-06T08:51:08;99695.06;;;10.88;36.92
33697;BME280;20031;43.416;23.232;2023-04-06T08:53:33;99678.94;;;10.85;37.13
33697;BME280;20031;43.416;23.232;2023-04-06T08:55:59;99685.84;;;11.08;36.82
33697;BME280;20031;43.416;23.232;2023-04-06T08:58:28;99675.72;;;11.13;37.13
33697;BME280;20031;43.416;23.232;2023-04-06T09:00:56;99667.69;;;11.22;36.69
33697;BME280;20031;43.416;23.232;2023-04-06T09:03:23;99679.28;;;11.20;36.44
33697;BME280;20031;43.416;23.232;2023-04-06T09:05:49;99664.91;;;11.24;36.55
33697;BME280;20031;43.416;23.232;2023-04-06T09:08:15;99674.34;;;11.55;36.80
33697;BME280;20031;43.416;23.232;2023-04-06T09:10:41;99673.94;;;11.88;36.52
33697;BME280;20031;43.416;23.232;2023-04-06T09:13:07;99671.66;;;11.85;36.12
33697;BME280;20031;43.416;23.232;2023-04-06T09:15:33;99669.13;;;12.00;35.87
33697;BME280;20031;43.416;23.232;2023-04-06T09:17:59;99668.97;;;12.16;35.69
33697;BME280;20031;43.416;23.232;2023-04-06T09:20:26;99674.84;;;11.95;35.35
33697;BME280;20031;43.416;23.232;2023-04-06T09:22:53;99666.31;;;11.87;36.32
33697;BME280;20031;43.416;23.232;2023-04-06T09:25:21;99656.84;;;11.86;35.95
33697;BME280;20031;43.416;23.232;2023-04-06T09:27:49;99663.47;;;11.52;36.67
33697;BME280;20031;43.416;23.232;2023-04-06T09:30:23;99662.03;;;11.41;37.06
33697;BME280;20031;43.416;23.232;2023-04-06T09:32:56;99652.88;;;11.45;37.52
33697;BME280;20031;43.416;23.232;2023-04-06T09:35:23;99650.00;;;11.40;36.46
33697;BME280;20031;43.416;23.232;2023-04-06T09:37:52;99655.28;;;11.24;37.10
33697;BME280;20031;43.416;23.232;2023-04-06T09:40:18;99657.16;;;11.38;37.67
33697;BME280;20031;43.416;23.232;2023-04-06T09:42:48;99655.91;;;11.57;37.76
33697;BME280;20031;43.416;23.232;2023-04-06T09:45:15;99650.09;;;11.47;36.94
33697;BME280;20031;43.416;23.232;2023-04-06T09:47:43;99656.09;;;11.55;37.63
33697;BME280;20031;43.416;23.232;2023-04-06T09:50:10;99653.50;;;11.77;37.08
33697;BME280;20031;43.416;23.232;2023-04-06T09:52:43;99648.59;;;11.97;36.45
33697;BME280;20031;43.416;23.232;2023-04-06T09:55:12;99655.03;;;11.86;36.55
33697;BME280;20031;43.416;23.232;2023-04-06T09:57:55;99653.97;;;11.59;36.70
33697;BME280;20031;43.416;23.232;2023-04-06T10:00:23;99645.84;;;11.54;37.01
33697;BME280;20031;43.416;23.232;2023-04-06T10:02:59;99644.59;;;11.42;37.18
33697;BME280;20031;43.416;23.232;2023-04-06T10:08:09;99651.69;;;11.56;37.03
33697;BME280;20031;43.416;23.232;2023-04-06T10:10:36;99642.44;;;11.53;37.50
33697;BME280;20031;43.416;23.232;2023-04-06T10:13:02;99653.41;;;11.85;37.72
33697;BME280;20031;43.416;23.232;2023-04-06T10:15:29;99653.97;;;11.95;36.45
33697;BME280;20031;43.416;23.232;2023-04-06T10:18:00;99654.34;;;12.07;35.37
33697;BME280;20031;43.416;23.232;2023-04-06T10:21:19;99654.53;;;12.05;35.82
33697;BME280;20031;43.416;23.232;2023-04-06T10:23:36;99645.66;;;12.14;35.70
33697;BME280;20031;43.416;23.232;2023-04-06T10:26:04;99649.44;;;12.26;35.87
33697;BME280;20031;43.416;23.232;2023-04-06T10:28:34;99637.56;;;12.38;36.24
33697;BME280;20031;43.416;23.232;2023-04-06T10:31:04;99635.03;;;12.59;36.04
33697;BME280;20031;43.416;23.232;2023-04-06T10:33:30;99639.34;;;12.52;35.10
33697;BME280;20031;43.416;23.232;2023-04-06T10:35:56;99640.06;;;12.74;35.78
33697;BME280;20031;43.416;23.232;2023-04-06T10:38:37;99650.31;;;12.76;35.36
33697;BME280;20031;43.416;23.232;2023-04-06T10:41:07;99639.28;;;12.60;35.27
33697;BME280;20031;43.416;23.232;2023-04-06T10:43:34;99639.34;;;12.66;35.67
33697;BME280;20031;43.416;23.232;2023-04-06T10:46:04;99630.63;;;12.88;35.90
33697;BME280;20031;43.416;23.232;2023-04-06T10:48:44;99627.66;;;12.48;35.78
33697;BME280;20031;43.416;23.232;2023-04-06T10:51:13;99626.22;;;12.45;35.48
33697;BME280;20031;43.416;23.232;2023-04-06T10:53:45;99636.28;;;12.77;36.20
33697;BME280;20031;43.416;23.232;2023-04-06T10:56:13;99612.81;;;13.33;35.75
33697;BME280;20031;43.416;23.232;2023-04-06T10:58:47;99608.19;;;13.56;33.89
33697;BME280;20031;43.416;23.232;2023-04-06T11:01:16;99611.06;;;13.40;33.73
33697;BME280;20031;43.416;23.232;2023-04-06T11:03:56;99606.91;;;12.89;35.27
33697;BME280;20031;43.416;23.232;2023-04-06T11:06:25;99619.88;;;12.69;35.23
33697;BME280;20031;43.416;23.232;2023-04-06T11:08:52;99606.94;;;12.61;36.39
33697;BME280;20031;43.416;23.232;2023-04-06T11:11:20;99611.44;;;12.67;35.62
33697;BME280;20031;43.416;23.232;2023-04-06T11:13:49;99613.31;;;12.73;36.17
33697;BME280;20031;43.416;23.232;2023-04-06T11:16:16;99613.34;;;12.44;35.89
33697;BME280;20031;43.416;23.232;2023-04-06T11:18:55;99605.13;;;12.61;36.43
33697;BME280;20031;43.416;23.232;2023-04-06T11:21:34;99588.69;;;12.81;35.73
33697;BME280;20031;43.416;23.232;2023-04-06T11:24:20;99590.88;;;12.78;36.06
33697;BME280;20031;43.416;23.232;2023-04-06T11:29:20;99598.09;;;12.62;35.98
33697;BME280;20031;43.416;23.232;2023-04-06T11:31:48;99586.94;;;12.68;36.39
33697;BME280;20031;43.416;23.232;2023-04-06T11:34:19;99602.53;;;12.47;36.09
33697;BME280;20031;43.416;23.232;2023-04-06T11:36:46;99595.78;;;12.38;37.05
33697;BME280;20031;43.416;23.232;2023-04-06T11:39:13;99608.03;;;12.23;36.82
33697;BME280;20031;43.416;23.232;2023-04-06T11:41:39;99600.53;;;12.06;37.06
33697;BME280;20031;43.416;23.232;2023-04-06T11:44:05;99601.94;;;11.94;37.68
33697;BME280;20031;43.416;23.232;2023-04-06T11:46:31;99603.94;;;11.92;37.04
33697;BME280;20031;43.416;23.232;2023-04-06T11:49:01;99598.59;;;11.85;36.93
33697;BME280;20031;43.416;23.232;2023-04-06T11:51:27;99602.06;;;12.00;37.04
33697;BME280;20031;43.416;23.232;2023-04-06T11:53:53;99599.97;;;11.81;37.42
33697;BME280;20031;43.416;23.232;2023-04-06T11:56:26;99597.38;;;12.10;36.90
33697;BME280;20031;43.416;23.232;2023-04-06T11:58:54;99602.13;;;11.92;37.30
33697;BME280;20031;43.416;23.232;2023-04-06T12:01:20;99603.53;;;12.17;37.62
33697;BME280;20031;43.416;23.232;2023-04-06T12:03:45;99592.34;;;12.23;36.78
33697;BME280;20031;43.416;23.232;2023-04-06T12:06:11;99596.84;;;12.15;37.30
33697;BME280;20031;43.416;23.232;2023-04-06T12:08:36;99597.13;;;12.34;37.57
33697;BME280;20031;43.416;23.232;2023-04-06T12:11:02;99598.94;;;12.48;36.94
33697;BME280;20031;43.416;23.232;2023-04-06T12:13:27;99595.78;;;12.38;36.64
33697;BME280;20031;43.416;23.232;2023-04-06T12:15:53;99607.28;;;12.15;36.96
33697;BME280;20031;43.416;23.232;2023-04-06T12:18:18;99590.72;;;12.08;37.05
33697;BME280;20031;43.416;23.232;2023-04-06T12:20:43;99582.53;;;11.96;36.50
33697;BME280;20031;43.416;23.232;2023-04-06T12:23:09;99581.81;;;12.17;36.95
33697;BME280;20031;43.416;23.232;2023-04-06T12:25:35;99584.97;;;12.26;36.51
33697;BME280;20031;43.416;23.232;2023-04-06T12:28:00;99583.91;;;12.21;37.15
33697;BME280;20031;43.416;23.232;2023-04-06T12:30:26;99578.03;;;12.33;36.74
33697;BME280;20031;43.416;23.232;2023-04-06T12:32:51;99591.97;;;12.40;37.02
33697;BME280;20031;43.416;23.232;2023-04-06T12:35:17;99591.91;;;12.48;36.20
33697;BME280;20031;43.416;23.232;2023-04-06T12:37:42;99584.34;;;12.24;36.42
33697;BME280;20031;43.416;23.232;2023-04-06T12:40:08;99593.44;;;12.28;36.74
33697;BME280;20031;43.416;23.232;2023-04-06T12:42:36;99584.78;;;11.99;36.36
33697;BME280;20031;43.416;23.232;2023-04-06T12:45:02;99578.44;;;11.79;36.86
33697;BME280;20031;43.416;23.232;2023-04-06T12:47:28;99589.00;;;11.86;37.30
33697;BME280;20031;43.416;23.232;2023-04-06T12:49:54;99586.00;;;11.74;36.84
33697;BME280;20031;43.416;23.232;2023-04-06T12:52:20;99589.97;;;11.85;36.85
33697;BME280;20031;43.416;23.232;2023-04-06T12:54:45;99589.00;;;12.00;37.00
33697;BME280;20031;43.416;23.232;2023-04-06T12:57:11;99583.97;;;11.99;36.69
33697;BME280;20031;43.416;23.232;2023-04-06T12:59:36;99602.00;;;12.08;36.74